CYQQ

Comox Airport

Comox, , Canada
METAR CYQQ 181600Z 00000KT 20SM FEW180 OVC250 07/07 A3017 RMK AC2CI6 FG BANK NE QUAD SLP218
Observed Flight Rules
Oct-18 @ 16:00 UTC (39 minutes ago) Visual Flight Rules
Visibility Clouds
20 miles
  • Few at 18,000' AGL
  • Overcast at 25,000' AGL
Temperatures Readings
Current 7°C / 45°F
Dewpoint 7°C / 45°F
Humidity 100%
Altimeter 30.17" Hg
Pressure 1021.8 hPa
Elevation 24
METAR CYQQ 181600Z 00000KT 20SM FEW180 OVC250 07/07 A3017 RMK AC2CI6 FG BANK NE QUAD SLP218
Observed Flight Rules
Oct-18 @ 16:00 UTC
(39 minutes ago)
VFR
Clouds
  • Few at 18,000' AGL
  • Overcast at 25,000' AGL
Temperature Dewpoint
7°C / 45°F 7°C / 45°F
Humidity Altimeter Pressure
100% 30.17" Hg 1021.8 hPa